createdAt,value
2022-11-04T00:01:05.013Z,7.57
2022-11-04T00:03:33.235Z,7.07
2022-11-04T00:06:04.272Z,5.73
2022-11-04T00:08:32.344Z,6.97
2022-11-04T00:11:19.136Z,7.17
2022-11-04T00:13:48.640Z,7.50
2022-11-04T00:16:34.266Z,6.73
2022-11-04T00:19:02.728Z,6.10
2022-11-04T00:21:49.895Z,7.80
2022-11-04T00:24:35.681Z,5.93
2022-11-04T00:27:29.502Z,6.00
2022-11-04T00:29:57.680Z,5.43
2022-11-04T00:32:44.029Z,6.03
2022-11-04T00:35:13.409Z,6.20
2022-11-04T00:37:44.365Z,5.73
2022-11-04T00:40:14.237Z,5.90
2022-11-04T00:42:44.600Z,5.87
2022-11-04T00:45:12.696Z,5.50
2022-11-04T00:47:42.692Z,5.83
2022-11-04T00:50:11.156Z,5.10
2022-11-04T00:52:39.571Z,5.43
2022-11-04T00:55:10.014Z,5.07
2022-11-04T00:57:38.096Z,6.23
2022-11-04T01:00:07.221Z,5.13
2022-11-04T01:02:35.512Z,5.60
2022-11-04T01:05:03.772Z,5.30
2022-11-04T01:07:32.370Z,4.77
2022-11-04T01:10:00.457Z,4.57
2022-11-04T01:12:29.954Z,4.30
2022-11-04T01:14:58.050Z,4.93
2022-11-04T01:17:26.173Z,6.47
2022-11-04T01:19:54.271Z,4.97
2022-11-04T01:22:22.331Z,4.30
2022-11-04T01:24:50.384Z,4.70
2022-11-04T01:27:18.482Z,5.10
2022-11-04T01:29:47.979Z,4.00
2022-11-04T01:32:16.059Z,4.60
2022-11-04T01:34:44.143Z,5.37
2022-11-04T01:37:12.438Z,3.90
2022-11-04T01:39:40.518Z,4.00
2022-11-04T01:42:11.973Z,4.27
2022-11-04T01:44:56.042Z,4.03
2022-11-04T01:47:28.633Z,4.10
2022-11-04T01:50:00.671Z,3.90
2022-11-04T01:52:34.904Z,3.77
2022-11-04T01:55:08.116Z,6.10
2022-11-04T01:57:41.531Z,3.57
2022-11-04T02:00:13.133Z,3.70
2022-11-04T02:02:51.087Z,3.00
2022-11-04T02:05:19.793Z,2.63
2022-11-04T02:07:52.096Z,3.90
2022-11-04T02:10:23.399Z,3.43
2022-11-04T02:12:51.101Z,3.03
2022-11-04T02:15:31.703Z,3.23
2022-11-04T02:18:19.278Z,3.07
2022-11-04T02:21:07.777Z,3.07
2022-11-04T02:24:06.449Z,2.93
2022-11-04T02:27:07.723Z,4.23
2022-11-04T02:30:08.744Z,3.20
2022-11-04T02:32:58.270Z,3.40
2022-11-04T02:35:36.016Z,2.80
2022-11-04T02:38:11.725Z,2.97
2022-11-04T02:40:46.610Z,3.20
2022-11-04T02:43:22.610Z,3.07
2022-11-04T02:45:57.898Z,3.50
2022-11-04T02:48:33.259Z,2.67
2022-11-04T02:51:06.531Z,2.90
2022-11-04T02:53:39.810Z,3.40
2022-11-04T02:56:09.544Z,2.60
2022-11-04T02:58:42.744Z,3.03
2022-11-04T03:01:16.477Z,2.03
2022-11-04T03:03:49.453Z,2.80
2022-11-04T03:06:22.242Z,2.17
2022-11-04T03:08:53.408Z,2.73
2022-11-04T03:11:24.668Z,3.03
2022-11-04T03:13:58.798Z,2.37
2022-11-04T03:16:34.352Z,2.47
2022-11-04T03:19:08.275Z,2.17
2022-11-04T03:21:42.460Z,2.57
2022-11-04T03:24:10.777Z,2.40
2022-11-04T03:26:44.698Z,2.17
2022-11-04T03:29:26.791Z,2.20
2022-11-04T03:32:04.836Z,2.20
2022-11-04T03:34:33.209Z,1.90
2022-11-04T03:37:01.682Z,2.70
2022-11-04T03:39:30.021Z,1.53
2022-11-04T03:42:01.597Z,2.20
2022-11-04T03:44:31.383Z,1.90
2022-11-04T03:47:01.324Z,2.23
2022-11-04T03:49:29.461Z,1.80
2022-11-04T03:51:59.165Z,1.83
2022-11-04T03:54:27.270Z,1.83
2022-11-04T03:57:16.929Z,2.87
2022-11-04T04:00:11.386Z,1.73
2022-11-04T04:02:53.157Z,1.80
2022-11-04T04:05:25.626Z,1.80
2022-11-04T04:08:01.115Z,4.57
2022-11-04T04:10:42.866Z,1.70
2022-11-04T04:13:22.501Z,2.50
2022-11-04T04:15:55.662Z,1.70
2022-11-04T04:18:34.754Z,1.90
2022-11-04T04:21:07.252Z,1.57
2022-11-04T04:23:54.935Z,1.80
2022-11-04T04:26:43.354Z,1.87
2022-11-04T04:29:12.165Z,1.33
2022-11-04T04:31:50.681Z,1.70
2022-11-04T04:34:24.729Z,1.70
2022-11-04T04:36:57.518Z,1.30
2022-11-04T04:39:48.158Z,1.30
2022-11-04T04:42:33.868Z,1.40
2022-11-04T04:45:04.665Z,1.47
2022-11-04T04:47:37.908Z,1.80
2022-11-04T04:50:08.677Z,1.63
2022-11-04T04:52:40.698Z,1.57
2022-11-04T04:55:09.991Z,1.33
2022-11-04T04:57:38.335Z,1.40
2022-11-04T05:00:08.785Z,1.30
2022-11-04T05:02:36.889Z,1.30
2022-11-04T05:05:08.029Z,1.60
2022-11-04T05:07:36.173Z,1.37
2022-11-04T05:10:04.500Z,1.60
2022-11-04T05:12:46.496Z,1.40
2022-11-04T05:15:15.079Z,1.30
2022-11-04T05:17:43.245Z,1.23
2022-11-04T05:20:13.553Z,1.17
2022-11-04T05:22:41.903Z,1.43
2022-11-04T05:25:10.188Z,1.23
2022-11-04T05:27:38.238Z,0.90
2022-11-04T05:30:07.587Z,1.20
2022-11-04T05:32:35.675Z,1.40
2022-11-04T05:35:03.810Z,1.20
2022-11-04T05:37:33.315Z,1.27
2022-11-04T05:40:01.412Z,1.50
2022-11-04T05:42:30.552Z,1.50
2022-11-04T05:44:58.648Z,1.27
2022-11-04T05:47:26.780Z,1.80
2022-11-04T05:49:57.549Z,0.90
2022-11-04T05:52:25.704Z,1.37
2022-11-04T05:54:55.176Z,1.07
2022-11-04T05:57:23.315Z,1.20
2022-11-04T05:59:51.424Z,1.47
2022-11-04T06:02:19.601Z,1.43
2022-11-04T06:04:47.738Z,1.27
2022-11-04T06:07:15.807Z,0.93
2022-11-04T06:09:48.885Z,1.47
2022-11-04T06:12:18.430Z,1.27
2022-11-04T06:14:46.508Z,1.27
2022-11-04T06:17:17.031Z,1.30
2022-11-04T06:19:45.324Z,1.07
2022-11-04T06:22:14.298Z,1.20
2022-11-04T06:24:43.163Z,3.80
2022-11-04T06:27:11.821Z,1.90
2022-11-04T06:29:41.819Z,1.13
2022-11-04T06:32:10.622Z,1.43
2022-11-04T06:34:38.844Z,1.47
2022-11-04T06:37:07.020Z,0.97
2022-11-04T06:39:35.314Z,1.90
2022-11-04T06:42:03.956Z,1.80
2022-11-04T06:44:33.990Z,1.40
2022-11-04T06:47:03.479Z,1.20
2022-11-04T06:49:31.605Z,1.20
2022-11-04T06:52:01.075Z,0.80
2022-11-04T06:54:29.172Z,1.33
2022-11-04T06:56:57.199Z,1.80
2022-11-04T06:59:25.299Z,1.60
2022-11-04T07:01:53.595Z,13.47
2022-11-04T07:04:23.104Z,8.53
2022-11-04T07:06:51.201Z,6.00
2022-11-04T07:09:19.260Z,8.23
2022-11-04T07:11:47.658Z,10.50
2022-11-04T07:14:16.114Z,6.23
2022-11-04T07:16:44.223Z,5.40
2022-11-04T07:19:12.435Z,8.37
2022-11-04T07:21:41.858Z,10.13
2022-11-04T07:24:10.194Z,6.70
2022-11-04T07:26:38.319Z,2.97
2022-11-04T07:29:06.775Z,3.37
2022-11-04T07:31:35.190Z,3.37
2022-11-04T07:34:03.292Z,5.93
2022-11-04T07:36:31.479Z,5.40
2022-11-04T07:39:01.041Z,4.00
2022-11-04T07:41:29.505Z,6.00
2022-11-04T07:43:58.921Z,2.20
2022-11-04T07:46:27.054Z,5.20
2022-11-04T07:48:58.181Z,3.80
2022-11-04T07:51:27.725Z,2.20
2022-11-04T07:53:56.632Z,4.87
2022-11-04T07:56:26.443Z,2.80
2022-11-04T07:58:54.773Z,2.40
2022-11-04T08:01:24.644Z,2.30
2022-11-04T08:03:53.214Z,4.50
2022-11-04T08:06:22.302Z,1.40
2022-11-04T08:08:53.968Z,4.87
2022-11-04T08:11:28.322Z,2.83
2022-11-04T08:13:56.854Z,3.00
2022-11-04T08:16:31.467Z,4.57
2022-11-04T08:19:02.337Z,2.87
2022-11-04T08:21:31.472Z,2.07
2022-11-04T08:23:59.630Z,3.47
2022-11-04T08:26:29.129Z,4.30
2022-11-04T08:28:57.585Z,8.73
2022-11-04T08:31:27.251Z,2.47
2022-11-04T08:33:55.920Z,4.50
2022-11-04T08:36:26.122Z,3.97
2022-11-04T08:38:54.976Z,3.53
2022-11-04T08:41:25.861Z,6.43
2022-11-04T08:43:56.563Z,4.43
2022-11-04T08:46:24.674Z,4.33
2022-11-04T08:48:52.785Z,3.10
2022-11-04T08:51:23.574Z,3.23
2022-11-04T08:53:51.711Z,3.00
2022-11-04T08:56:21.863Z,3.23
2022-11-04T08:58:50.775Z,2.23
2022-11-04T09:01:21.859Z,2.90
2022-11-04T09:03:50.563Z,2.60
2022-11-04T09:06:22.215Z,2.97
2022-11-04T09:08:50.648Z,3.20
2022-11-04T09:11:19.732Z,2.87
2022-11-04T09:13:47.950Z,2.43
2022-11-04T09:16:16.763Z,1.53
2022-11-04T09:18:46.491Z,2.33
2022-11-04T09:21:14.619Z,2.70
2022-11-04T09:23:42.718Z,2.73
2022-11-04T09:26:14.295Z,2.03
2022-11-04T09:28:43.119Z,3.33
2022-11-04T09:31:13.391Z,3.23
2022-11-04T09:33:41.740Z,4.60
2022-11-04T09:36:12.071Z,2.20
2022-11-04T09:38:41.941Z,1.50
2022-11-04T09:41:22.528Z,2.17
2022-11-04T09:43:56.843Z,3.50
2022-11-04T09:46:25.571Z,2.13
2022-11-04T09:48:56.239Z,2.07
2022-11-04T09:51:52.458Z,2.67
2022-11-04T09:54:22.504Z,4.40
2022-11-04T09:56:53.223Z,2.67
2022-11-04T09:59:26.418Z,3.10
2022-11-04T10:02:21.641Z,2.50
2022-11-04T10:04:58.690Z,2.80
2022-11-04T10:07:46.339Z,1.80
2022-11-04T10:10:24.047Z,3.03
2022-11-04T10:13:07.149Z,3.57
2022-11-04T10:15:59.061Z,5.43
2022-11-04T10:18:52.703Z,2.20
2022-11-04T10:21:30.746Z,2.20
2022-11-04T10:24:09.323Z,6.80
2022-11-04T10:26:45.353Z,5.63
2022-11-04T10:29:17.627Z,7.23
2022-11-04T10:31:48.816Z,3.37
2022-11-04T10:34:32.786Z,3.33
2022-11-04T10:37:01.057Z,5.37
2022-11-04T10:39:32.108Z,2.40
2022-11-04T10:42:00.327Z,4.13
2022-11-04T10:44:31.429Z,2.40
2022-11-04T10:47:09.581Z,2.70
2022-11-04T10:50:21.836Z,2.37
2022-11-04T10:52:38.765Z,2.13
2022-11-04T10:55:17.158Z,2.87
2022-11-04T10:57:46.008Z,4.13
2022-11-04T11:00:34.326Z,1.80
2022-11-04T11:03:03.003Z,3.03
2022-11-04T11:05:31.632Z,2.13
2022-11-04T11:07:59.960Z,2.10
2022-11-04T11:10:32.596Z,2.10
2022-11-04T11:13:03.501Z,2.43
2022-11-04T11:15:35.143Z,4.70
2022-11-04T11:18:15.184Z,2.13
2022-11-04T11:20:49.001Z,2.20
2022-11-04T11:23:40.749Z,3.17
2022-11-04T11:26:13.132Z,2.40
2022-11-04T11:28:42.399Z,2.43
2022-11-04T11:31:16.718Z,3.57
2022-11-04T11:33:52.259Z,2.43
2022-11-04T11:36:23.349Z,1.63
2022-11-04T11:39:04.117Z,1.83
2022-11-04T11:41:39.668Z,2.40
2022-11-04T11:44:21.331Z,1.43
2022-11-04T11:46:54.690Z,2.33
2022-11-04T11:49:28.477Z,8.43
2022-11-04T11:51:57.673Z,7.13
2022-11-04T11:54:33.510Z,2.93
2022-11-04T11:57:16.016Z,2.70
2022-11-04T12:02:48.725Z,1.50
2022-11-04T12:11:21.115Z,4.60
2022-11-04T12:13:54.289Z,2.10
2022-11-04T12:16:32.754Z,5.30
2022-11-04T12:19:20.943Z,1.87
2022-11-04T12:21:55.796Z,3.33
2022-11-04T12:24:31.992Z,2.10
2022-11-04T12:27:12.916Z,4.13
2022-11-04T12:29:56.961Z,3.70
2022-11-04T12:32:37.328Z,4.43
2022-11-04T12:35:17.187Z,4.60
2022-11-04T12:37:56.106Z,8.87
2022-11-04T12:40:29.083Z,11.03
2022-11-04T12:43:16.558Z,9.40
2022-11-04T12:45:57.458Z,15.33
2022-11-04T12:48:38.540Z,20.00
2022-11-04T12:51:16.481Z,22.30
2022-11-04T12:54:05.952Z,22.63
2022-11-04T12:56:38.497Z,28.33
2022-11-04T12:59:26.802Z,36.97
2022-11-04T13:02:00.614Z,34.53
2022-11-04T13:04:35.872Z,28.93
2022-11-04T13:07:11.188Z,26.67
2022-11-04T13:09:43.657Z,29.00
2022-11-04T13:12:17.244Z,29.73
2022-11-04T13:14:49.386Z,27.53
2022-11-04T13:17:23.908Z,28.23
2022-11-04T13:19:54.000Z,27.33
2022-11-04T13:22:25.365Z,23.80
2022-11-04T13:25:00.052Z,25.73
2022-11-04T13:27:33.175Z,25.20
2022-11-04T13:30:07.585Z,26.40
2022-11-04T13:32:49.916Z,21.90
2022-11-04T13:35:27.253Z,23.13
2022-11-04T13:37:59.992Z,21.50
2022-11-04T13:40:32.935Z,19.43
2022-11-04T13:43:39.400Z,18.63
2022-11-04T13:46:20.760Z,19.00
2022-11-04T13:49:01.052Z,23.90
2022-11-04T13:51:40.425Z,23.17
2022-11-04T13:54:14.638Z,19.40
2022-11-04T13:56:43.290Z,15.60
2022-11-04T13:59:29.693Z,17.17
2022-11-04T14:02:31.381Z,19.17
2022-11-04T14:05:54.456Z,20.23
2022-11-04T14:08:23.972Z,17.03
2022-11-04T14:11:07.957Z,20.50
2022-11-04T14:14:03.780Z,21.47
2022-11-04T14:16:46.124Z,15.20
2022-11-04T14:19:59.797Z,18.07
2022-11-04T14:22:38.824Z,17.30
2022-11-04T14:25:25.822Z,15.67
2022-11-04T14:27:55.770Z,11.47
2022-11-04T14:30:43.989Z,12.70
2022-11-04T14:33:39.611Z,14.20
2022-11-04T14:36:27.753Z,14.20
2022-11-04T14:38:59.546Z,9.50
2022-11-04T14:41:56.660Z,22.33
2022-11-04T14:44:32.931Z,11.47
2022-11-04T14:47:07.363Z,10.37
2022-11-04T14:49:41.088Z,7.93
2022-11-04T14:52:20.339Z,9.87
2022-11-04T14:54:49.412Z,9.30
2022-11-04T14:57:20.851Z,9.37
2022-11-04T14:59:52.150Z,10.97
2022-11-04T15:02:23.273Z,10.67
2022-11-04T15:04:56.872Z,7.07
2022-11-04T15:07:36.516Z,11.80
2022-11-04T15:10:20.718Z,9.53
2022-11-04T15:12:54.664Z,8.03
2022-11-04T15:15:36.247Z,6.40
2022-11-04T15:18:08.081Z,10.63
2022-11-04T15:20:42.028Z,7.73
2022-11-04T15:23:15.559Z,10.43
2022-11-04T15:25:48.625Z,7.27
2022-11-04T15:28:22.481Z,6.00
2022-11-04T15:31:16.535Z,7.23
2022-11-04T15:33:47.258Z,8.43
2022-11-04T15:36:18.510Z,9.80
2022-11-04T15:38:51.255Z,6.90
2022-11-04T15:41:40.126Z,6.97
2022-11-04T15:44:20.409Z,4.93
2022-11-04T15:46:51.094Z,5.30
2022-11-04T15:49:26.188Z,5.00
2022-11-04T15:51:59.702Z,6.87
2022-11-04T15:54:31.193Z,5.83
2022-11-04T15:57:03.529Z,5.03
2022-11-04T15:59:35.673Z,7.00
2022-11-04T16:02:06.558Z,6.07
2022-11-04T16:04:34.820Z,5.33
2022-11-04T16:07:21.781Z,4.70
2022-11-04T16:09:52.096Z,6.33
2022-11-04T16:12:28.032Z,6.47
2022-11-04T16:14:58.751Z,6.17
2022-11-04T16:17:28.477Z,4.10
2022-11-04T16:19:58.966Z,4.40
2022-11-04T16:22:31.708Z,4.90
2022-11-04T16:25:02.432Z,4.50
2022-11-04T16:31:36.292Z,3.93
2022-11-04T16:34:05.106Z,4.33
2022-11-04T16:36:35.762Z,3.93
2022-11-04T16:39:08.480Z,8.70
2022-11-04T16:41:39.382Z,4.47
2022-11-04T16:44:19.909Z,5.23
2022-11-04T16:46:49.407Z,5.50
2022-11-04T16:49:21.687Z,3.30
2022-11-04T16:51:54.577Z,4.57
2022-11-04T16:54:23.515Z,4.20
2022-11-04T16:56:51.810Z,4.43
2022-11-04T16:59:19.954Z,3.80
2022-11-04T17:01:49.601Z,3.40
2022-11-04T17:04:17.766Z,4.53
2022-11-04T17:06:46.291Z,7.40
2022-11-04T17:09:21.427Z,8.13
2022-11-04T17:11:49.814Z,4.90
2022-11-04T17:14:17.961Z,3.43
2022-11-04T17:16:46.183Z,3.47
2022-11-04T17:19:17.663Z,4.17
2022-11-04T17:21:47.466Z,4.90
2022-11-04T17:24:15.744Z,3.57
2022-11-04T17:26:43.854Z,5.50
2022-11-04T17:29:17.068Z,5.50
2022-11-04T17:31:45.616Z,4.13
2022-11-04T17:34:13.716Z,3.40
2022-11-04T17:36:43.191Z,3.80
2022-11-04T17:39:11.286Z,3.40
2022-11-04T17:41:56.703Z,4.90
2022-11-04T17:44:24.794Z,4.33
2022-11-04T17:46:52.914Z,4.30
2022-11-04T17:49:22.986Z,5.03
2022-11-04T17:51:55.763Z,4.37
2022-11-04T17:54:25.361Z,3.07
2022-11-04T17:56:53.475Z,3.37
2022-11-04T17:59:21.681Z,3.40
2022-11-04T18:01:50.229Z,3.13
2022-11-04T18:04:23.026Z,3.73
2022-11-04T18:06:55.089Z,2.87
2022-11-04T18:09:26.615Z,3.63
2022-11-04T18:12:12.437Z,3.30
2022-11-04T18:14:40.537Z,2.87
2022-11-04T18:17:11.497Z,4.10
2022-11-04T18:19:39.567Z,3.13
2022-11-04T18:22:09.050Z,3.20
2022-11-04T18:24:37.238Z,3.63
2022-11-04T18:27:05.416Z,2.80
2022-11-04T18:29:33.498Z,3.37
2022-11-04T18:32:02.064Z,2.43
2022-11-04T18:34:30.221Z,3.00
2022-11-04T18:36:58.854Z,3.40
2022-11-04T18:39:28.358Z,3.13
2022-11-04T18:41:56.452Z,4.63
2022-11-04T18:44:24.827Z,2.73
2022-11-04T18:46:53.404Z,3.70
2022-11-04T18:49:21.732Z,2.53
2022-11-04T18:51:49.939Z,3.10
2022-11-04T18:54:18.105Z,3.17
2022-11-04T18:56:47.622Z,2.93
2022-11-04T18:59:16.777Z,2.83
2022-11-04T19:01:45.559Z,2.80
2022-11-04T19:04:14.571Z,3.70
2022-11-04T19:06:44.458Z,3.43
2022-11-04T19:12:21.644Z,2.83
2022-11-04T19:14:49.886Z,3.93
2022-11-04T19:17:17.974Z,4.17
2022-11-04T19:19:46.249Z,4.90
2022-11-04T19:22:14.644Z,3.03
2022-11-04T19:24:42.846Z,3.30
2022-11-04T19:27:12.322Z,2.60
2022-11-04T19:29:40.477Z,2.67
2022-11-04T19:32:13.874Z,2.70
2022-11-04T19:34:42.751Z,3.10
2022-11-04T19:37:11.664Z,3.73
2022-11-04T19:39:40.100Z,5.23
2022-11-04T19:42:40.646Z,3.33
2022-11-04T19:45:12.165Z,3.50
2022-11-04T19:47:40.317Z,4.20
2022-11-04T19:50:09.062Z,4.33
2022-11-04T19:52:37.279Z,3.33
2022-11-04T19:55:07.180Z,3.77
2022-11-04T19:57:35.807Z,4.40
2022-11-04T20:00:04.769Z,3.27
2022-11-04T20:02:41.131Z,6.37
2022-11-04T20:05:10.399Z,3.87
2022-11-04T20:07:39.377Z,4.37
2022-11-04T20:10:08.462Z,3.63
2022-11-04T20:12:54.217Z,5.00
2022-11-04T20:15:22.763Z,4.13
2022-11-04T20:17:52.224Z,3.67
2022-11-04T20:20:20.330Z,3.83
2022-11-04T20:22:48.400Z,4.07
2022-11-04T20:25:16.623Z,3.87
2022-11-04T20:27:44.753Z,4.10
2022-11-04T20:30:13.492Z,3.30
2022-11-04T20:32:41.641Z,3.43
2022-11-04T20:35:11.381Z,4.00
2022-11-04T20:37:39.663Z,5.97
2022-11-04T20:40:09.414Z,10.90
2022-11-04T20:42:37.588Z,4.00
2022-11-04T20:45:06.544Z,5.80
2022-11-04T20:47:36.003Z,6.43
2022-11-04T20:50:04.703Z,3.83
2022-11-04T20:52:36.972Z,4.30
2022-11-04T20:55:05.625Z,4.70
2022-11-04T20:57:35.118Z,3.83
2022-11-04T21:00:04.225Z,4.57
2022-11-04T21:02:32.544Z,3.77
2022-11-04T21:05:00.857Z,4.20
2022-11-04T21:07:29.018Z,4.50
2022-11-04T21:09:58.670Z,4.00
2022-11-04T21:12:26.821Z,4.27
2022-11-04T21:14:54.950Z,4.33
2022-11-04T21:17:23.081Z,4.57
2022-11-04T21:19:51.572Z,4.23
2022-11-04T21:22:19.694Z,5.93
2022-11-04T21:24:47.812Z,4.43
2022-11-04T21:27:17.260Z,3.93
2022-11-04T21:29:45.492Z,3.90
2022-11-04T21:32:13.611Z,4.43
2022-11-04T21:34:41.743Z,4.27
2022-11-04T21:37:09.833Z,5.50
2022-11-04T21:39:37.995Z,3.80
2022-11-04T21:42:06.396Z,4.33
2022-11-04T21:44:35.836Z,4.13
2022-11-04T21:47:03.932Z,3.73
2022-11-04T21:49:32.028Z,6.00
2022-11-04T21:52:00.092Z,5.40
2022-11-04T21:54:28.327Z,7.10
2022-11-04T21:56:56.414Z,4.47
2022-11-04T21:59:24.484Z,4.43
2022-11-04T22:01:54.138Z,7.30
2022-11-04T22:04:22.330Z,3.87
2022-11-04T22:06:50.559Z,3.30
2022-11-04T22:09:18.670Z,6.77
2022-11-04T22:11:46.881Z,7.97
2022-11-04T22:14:15.288Z,5.30
2022-11-04T22:16:43.402Z,5.40
2022-11-04T22:19:14.541Z,7.03
2022-11-04T22:21:44.809Z,7.10
2022-11-04T22:24:13.773Z,3.50
2022-11-04T22:26:42.335Z,3.37
2022-11-04T22:29:11.254Z,3.67
2022-11-04T22:31:42.688Z,3.40
2022-11-04T22:34:12.180Z,3.90
2022-11-04T22:36:40.382Z,4.57
2022-11-04T22:39:13.453Z,2.93
2022-11-04T22:41:46.235Z,3.40
2022-11-04T22:44:14.897Z,4.43
2022-11-04T22:46:43.421Z,4.20
2022-11-04T22:49:14.371Z,4.50
2022-11-04T22:51:42.454Z,3.63
2022-11-04T22:54:11.237Z,3.00
2022-11-04T22:56:39.381Z,3.57
2022-11-04T22:59:07.973Z,3.03
2022-11-04T23:01:36.255Z,4.30
2022-11-04T23:04:04.791Z,3.23
2022-11-04T23:06:34.492Z,3.47
2022-11-04T23:09:02.622Z,3.43
2022-11-04T23:11:49.174Z,3.10
2022-11-04T23:14:36.189Z,3.37
2022-11-04T23:17:26.807Z,3.43
2022-11-04T23:19:54.993Z,3.53
2022-11-04T23:22:42.175Z,4.83
2022-11-04T23:25:10.713Z,3.33
2022-11-04T23:27:58.649Z,3.07
2022-11-04T23:30:28.023Z,3.20
2022-11-04T23:32:58.450Z,3.50
2022-11-04T23:35:46.616Z,2.77
2022-11-04T23:38:16.413Z,2.77
2022-11-04T23:41:06.232Z,3.60
2022-11-04T23:43:34.474Z,5.17
2022-11-04T23:46:20.245Z,2.83
2022-11-04T23:49:06.068Z,2.57
2022-11-04T23:51:51.497Z,3.07
2022-11-04T23:54:50.005Z,2.60
2022-11-04T23:57:36.856Z,3.43
